Time;durP1;ratioP1;P1;durP2;ratioP2;P2;SDS_P1;SDS_P2;PMS_P1;PMS_P2;Temp;Humidity;BMP_temperature;BMP_pressure;BME280_temperature;BME280_humidity;BME280_pressure;Samples;Min_cycle;Max_cycle;Signal;HPM_P1;HPM_P2
2023/09/10 00:02:16;;;;;;;9.77;8.80;;;19.20;99.90;;;;;;5086191;28;20629;-71
2023/09/10 00:04:43;;;;;;;8.97;8.07;;;19.10;99.90;;;;;;5085810;28;21379;-71
2023/09/10 00:07:10;;;;;;;8.60;7.80;;;19.00;99.90;;;;;;5086821;28;21219;-71
2023/09/10 00:09:37;;;;;;;10.63;9.43;;;19.00;99.90;;;;;;5083982;28;20994;-70
2023/09/10 00:12:04;;;;;;;10.53;8.67;;;19.00;99.90;;;;;;5085631;28;20668;-70
2023/09/10 00:14:31;;;;;;;8.77;7.97;;;19.00;99.90;;;;;;5086025;28;20635;-70
2023/09/10 00:16:59;;;;;;;9.27;7.50;;;19.00;99.90;;;;;;5085350;28;20633;-70
2023/09/10 00:19:26;;;;;;;15.03;9.17;;;19.00;99.90;;;;;;5084865;28;20630;-70
2023/09/10 00:21:52;;;;;;;10.97;9.60;;;18.90;99.90;;;;;;5085902;28;20625;-70
2023/09/10 00:24:19;;;;;;;9.53;7.87;;;19.00;99.90;;;;;;5085146;28;20629;-70
2023/09/10 00:26:46;;;;;;;11.90;8.30;;;19.00;99.90;;;;;;5085837;28;20642;-70
2023/09/10 00:29:13;;;;;;;10.27;8.03;;;19.00;99.90;;;;;;5084714;28;20748;-70
2023/09/10 00:31:40;;;;;;;11.57;8.73;;;19.00;99.90;;;;;;5086436;28;20648;-70
2023/09/10 00:34:08;;;;;;;11.13;8.20;;;19.00;99.90;;;;;;5085768;28;20624;-70
2023/09/10 00:36:35;;;;;;;10.40;8.90;;;18.90;99.90;;;;;;5085907;28;20630;-70
2023/09/10 00:39:03;;;;;;;9.97;8.60;;;18.90;99.90;;;;;;5084775;28;20643;-70
2023/09/10 00:41:29;;;;;;;8.63;7.70;;;18.90;99.90;;;;;;5084662;28;20635;-70
2023/09/10 00:43:56;;;;;;;12.47;9.30;;;18.80;99.90;;;;;;5085682;28;21214;-70
2023/09/10 00:46:23;;;;;;;8.77;7.90;;;18.80;99.90;;;;;;5089594;28;20629;-70
2023/09/10 00:48:50;;;;;;;10.10;8.10;;;18.80;99.90;;;;;;5089839;28;20663;-70
2023/09/10 00:51:19;;;;;;;11.70;7.97;;;18.60;99.90;;;;;;5088251;28;20656;-70
2023/09/10 00:53:46;;;;;;;10.50;9.07;;;18.50;99.90;;;;;;5089333;28;20635;-69
2023/09/10 00:56:14;;;;;;;10.20;8.30;;;18.60;99.90;;;;;;5089585;28;20636;-70
2023/09/10 00:58:40;;;;;;;10.30;8.43;;;18.60;99.90;;;;;;5089572;28;20632;-70
2023/09/10 01:01:08;;;;;;;14.13;8.53;;;18.70;99.90;;;;;;5088372;27;20990;-70
2023/09/10 01:03:36;;;;;;;10.27;9.27;;;18.60;99.90;;;;;;5088272;28;20635;-70
2023/09/10 01:06:03;;;;;;;10.53;7.80;;;18.60;99.90;;;;;;5089479;28;21225;-70
2023/09/10 01:08:31;;;;;;;8.77;7.97;;;18.50;99.90;;;;;;5087910;28;20973;-70
2023/09/10 01:11:06;;;;;;;10.13;7.90;;;18.50;99.90;;;;;;5089208;28;20743;-70
2023/09/10 01:13:41;;;;;;;10.83;9.07;;;18.60;99.90;;;;;;5088476;28;20631;-70
2023/09/10 01:16:15;;;;;;;9.53;8.07;;;18.60;99.90;;;;;;5090271;28;20639;-70
2023/09/10 01:18:48;;;;;;;9.80;8.80;;;18.60;99.90;;;;;;5088805;28;20635;-70
2023/09/10 01:21:30;;;;;;;10.27;8.60;;;18.50;99.90;;;;;;5088512;28;20619;-70
2023/09/10 01:24:13;;;;;;;8.77;7.97;;;18.50;99.90;;;;;;5087965;28;21086;-70
2023/09/10 01:26:42;;;;;;;8.80;7.87;;;18.50;99.90;;;;;;5089422;28;20659;-70
2023/09/10 01:29:13;;;;;;;12.20;11.00;;;18.50;99.90;;;;;;5088954;28;21271;-70
2023/09/10 01:31:43;;;;;;;10.17;9.17;;;18.60;99.90;;;;;;5088986;28;20763;-70
2023/09/10 01:34:14;;;;;;;12.30;9.23;;;18.50;99.90;;;;;;5088797;28;20630;-70
2023/09/10 01:36:46;;;;;;;10.47;9.43;;;18.50;99.90;;;;;;5088562;28;20617;-70
2023/09/10 01:39:24;;;;;;;9.67;8.77;;;18.40;99.90;;;;;;5086524;28;20621;-70
2023/09/10 01:41:53;;;;;;;9.50;8.60;;;18.40;99.90;;;;;;5088470;28;20615;-70
2023/09/10 01:44:23;;;;;;;12.13;9.73;;;18.50;99.90;;;;;;5088135;28;20636;-71
2023/09/10 01:46:53;;;;;;;9.60;7.80;;;18.60;99.90;;;;;;5088652;28;20631;-70
2023/09/10 01:49:20;;;;;;;11.33;10.13;;;18.70;99.90;;;;;;5088204;28;20810;-70
2023/09/10 01:51:48;;;;;;;12.17;8.70;;;18.50;99.90;;;;;;5087683;28;21021;-70
2023/09/10 01:54:15;;;;;;;12.20;8.87;;;18.40;99.90;;;;;;5088583;28;20732;-70
2023/09/10 01:56:42;;;;;;;10.43;8.43;;;18.40;99.90;;;;;;5086512;28;20635;-70
2023/09/10 01:59:10;;;;;;;9.50;8.50;;;18.50;99.90;;;;;;5087770;28;21196;-70
2023/09/10 02:01:37;;;;;;;14.10;9.73;;;18.50;99.90;;;;;;5088234;28;20616;-70
2023/09/10 02:04:05;;;;;;;8.80;7.90;;;18.40;99.90;;;;;;5087823;28;20632;-70
2023/09/10 02:06:32;;;;;;;11.33;8.53;;;18.30;99.90;;;;;;5088034;28;20665;-70
2023/09/10 02:08:58;;;;;;;9.57;8.63;;;18.30;99.90;;;;;;5087299;28;20688;-70
2023/09/10 02:11:27;;;;;;;9.47;7.90;;;18.40;99.90;;;;;;5088284;28;21110;-70
2023/09/10 02:13:54;;;;;;;10.03;9.00;;;18.40;99.90;;;;;;5087605;28;21211;-70
2023/09/10 02:16:22;;;;;;;12.33;8.60;;;18.30;99.90;;;;;;5088485;28;20631;-70
2023/09/10 02:18:49;;;;;;;9.90;8.90;;;18.30;99.90;;;;;;5087630;28;20636;-70
2023/09/10 02:21:16;;;;;;;9.53;8.53;;;18.30;99.90;;;;;;5087296;28;20631;-70
2023/09/10 02:23:43;;;;;;;9.63;8.70;;;18.20;99.90;;;;;;5087840;28;20643;-70
2023/09/10 02:26:10;;;;;;;11.30;9.27;;;18.20;99.90;;;;;;5087635;28;21111;-70
2023/09/10 02:28:37;;;;;;;9.50;7.80;;;18.30;99.90;;;;;;5088145;28;20713;-70
2023/09/10 02:31:07;;;;;;;10.17;9.17;;;18.30;99.90;;;;;;5087358;27;21218;-70
2023/09/10 02:33:36;;;;;;;12.23;9.13;;;18.30;99.90;;;;;;5085892;28;20652;-70
2023/09/10 02:36:04;;;;;;;10.87;8.90;;;18.20;99.90;;;;;;5089142;28;20637;-70
2023/09/10 02:38:31;;;;;;;10.03;8.97;;;18.20;99.90;;;;;;5086581;28;20710;-70
2023/09/10 02:40:59;;;;;;;8.90;8.07;;;18.30;99.90;;;;;;5086951;28;20627;-70
2023/09/10 02:43:25;;;;;;;9.63;8.73;;;18.20;99.90;;;;;;5087108;28;20624;-70
2023/09/10 02:45:52;;;;;;;7.93;7.27;;;18.20;99.90;;;;;;5086798;28;21008;-70
2023/09/10 02:48:19;;;;;;;12.53;9.53;;;18.20;99.90;;;;;;5088118;28;20790;-70
2023/09/10 02:50:47;;;;;;;8.93;8.03;;;18.10;99.90;;;;;;5086853;28;20635;-70
2023/09/10 02:53:14;;;;;;;10.70;9.37;;;18.10;99.90;;;;;;5087442;28;21217;-70
2023/09/10 02:55:41;;;;;;;9.60;8.60;;;18.10;99.90;;;;;;5087436;28;20636;-70
2023/09/10 02:58:07;;;;;;;9.67;8.67;;;18.00;99.90;;;;;;5086522;28;20644;-70
2023/09/10 03:00:34;;;;;;;10.70;9.57;;;18.00;99.90;;;;;;5085816;28;20632;-70
2023/09/10 03:03:01;;;;;;;10.37;9.17;;;18.00;99.90;;;;;;5086576;28;20995;-70
2023/09/10 03:05:28;;;;;;;8.90;8.10;;;17.90;99.90;;;;;;5086987;28;21461;-70
2023/09/10 03:07:56;;;;;;;10.43;8.50;;;17.90;99.90;;;;;;5086293;28;20626;-70
2023/09/10 03:10:23;;;;;;;10.47;8.90;;;17.90;99.90;;;;;;5085729;28;20644;-70
2023/09/10 03:12:50;;;;;;;11.77;9.43;;;18.00;99.90;;;;;;5087481;28;20666;-70
2023/09/10 03:15:17;;;;;;;10.87;9.60;;;18.00;99.90;;;;;;5086478;28;21740;-70
2023/09/10 03:17:43;;;;;;;11.07;9.77;;;18.00;99.90;;;;;;5086536;28;20652;-70
2023/09/10 03:20:11;;;;;;;10.67;9.13;;;18.00;99.90;;;;;;5085734;28;21681;-70
2023/09/10 03:22:38;;;;;;;10.73;8.60;;;17.80;99.90;;;;;;5084511;28;20994;-71
2023/09/10 03:25:07;;;;;;;11.70;10.50;;;17.80;99.90;;;;;;5086062;28;21183;-71
2023/09/10 03:27:34;;;;;;;11.97;10.23;;;17.80;99.90;;;;;;5086633;28;20633;-70
2023/09/10 03:30:01;;;;;;;10.17;9.03;;;17.80;99.90;;;;;;5085876;28;20631;-70
2023/09/10 03:32:28;;;;;;;11.10;9.87;;;17.90;99.90;;;;;;5086040;28;20648;-70
2023/09/10 03:34:55;;;;;;;11.67;9.73;;;17.90;99.90;;;;;;5085716;28;21471;-71
2023/09/10 03:37:22;;;;;;;10.67;9.00;;;17.90;99.90;;;;;;5086616;28;21008;-70
2023/09/10 03:39:49;;;;;;;11.30;10.20;;;17.80;99.90;;;;;;5085728;28;20617;-70
2023/09/10 03:42:17;;;;;;;11.63;10.30;;;17.70;99.90;;;;;;5085516;28;20628;-71
2023/09/10 03:44:44;;;;;;;11.50;9.23;;;17.70;99.90;;;;;;5086869;28;21638;-70
2023/09/10 03:47:10;;;;;;;8.83;7.93;;;17.70;99.90;;;;;;5085297;28;20633;-71
2023/09/10 03:49:37;;;;;;;10.47;9.33;;;17.70;99.90;;;;;;5085240;28;20745;-70
2023/09/10 03:52:16;;;;;;;13.13;9.73;;;17.70;99.90;;;;;;5085846;28;20753;-70
2023/09/10 03:54:42;;;;;;;12.30;10.67;;;17.60;99.90;;;;;;5086384;28;21226;-71
2023/09/10 03:57:10;;;;;;;14.00;8.73;;;17.50;99.90;;;;;;5086173;28;20639;-70
2023/09/10 03:59:39;;;;;;;10.77;8.77;;;17.50;99.90;;;;;;5085506;28;21049;-70
2023/09/10 04:02:07;;;;;;;12.43;9.53;;;17.50;99.90;;;;;;5085377;28;20703;-70
2023/09/10 04:04:36;;;;;;;10.40;9.40;;;17.40;99.90;;;;;;5085813;28;20643;-70
2023/09/10 04:07:04;;;;;;;13.67;10.10;;;17.40;99.90;;;;;;5086417;28;20664;-70
2023/09/10 04:09:32;;;;;;;12.50;9.43;;;17.30;99.90;;;;;;5083810;28;21307;-70
2023/09/10 04:12:00;;;;;;;10.80;8.73;;;17.30;99.90;;;;;;5086334;28;20648;-70
2023/09/10 04:14:30;;;;;;;9.10;8.20;;;17.30;99.90;;;;;;5085847;28;20640;-70
2023/09/10 04:17:00;;;;;;;10.53;9.43;;;17.30;99.90;;;;;;5086418;28;20613;-70
2023/09/10 04:19:28;;;;;;;10.30;9.27;;;17.30;99.90;;;;;;5084467;28;20950;-70
2023/09/10 04:21:55;;;;;;;11.20;10.10;;;17.30;99.90;;;;;;5084657;28;20795;-70
2023/09/10 04:24:25;;;;;;;10.10;9.20;;;17.30;99.90;;;;;;5085801;28;20665;-70
2023/09/10 04:26:54;;;;;;;11.07;9.37;;;17.30;99.90;;;;;;5085995;28;20620;-70
2023/09/10 04:29:24;;;;;;;11.30;9.43;;;17.30;99.90;;;;;;5085467;28;20765;-71
2023/09/10 04:31:53;;;;;;;10.87;9.03;;;17.20;99.90;;;;;;5085336;28;20624;-70
2023/09/10 04:34:22;;;;;;;12.37;11.10;;;17.20;99.90;;;;;;5084898;28;21273;-70
2023/09/10 04:36:49;;;;;;;15.70;9.30;;;17.20;99.90;;;;;;5086394;28;20727;-70
2023/09/10 04:39:16;;;;;;;10.80;9.20;;;17.20;99.90;;;;;;5084860;28;21215;-70
2023/09/10 04:41:43;;;;;;;11.60;10.17;;;17.20;99.90;;;;;;5085912;28;21343;-70
2023/09/10 04:44:10;;;;;;;11.53;9.07;;;17.20;99.90;;;;;;5084796;28;20630;-71
2023/09/10 04:46:36;;;;;;;9.67;8.67;;;17.20;99.90;;;;;;5085356;28;20624;-71
2023/09/10 04:49:03;;;;;;;11.70;8.73;;;17.20;99.90;;;;;;5084712;28;20640;-71
2023/09/10 04:51:31;;;;;;;12.17;9.77;;;17.20;99.90;;;;;;5086395;28;21079;-70
2023/09/10 04:53:58;;;;;;;11.23;10.13;;;17.20;99.90;;;;;;5086015;28;20657;-70
2023/09/10 04:56:25;;;;;;;11.43;10.23;;;17.20;99.90;;;;;;5084933;28;20625;-70
2023/09/10 04:58:52;;;;;;;10.13;8.80;;;17.20;99.90;;;;;;5084118;28;20633;-71
2023/09/10 05:01:18;;;;;;;10.13;8.93;;;17.20;99.90;;;;;;5083917;28;20625;-70
2023/09/10 05:03:45;;;;;;;10.07;8.73;;;17.20;99.90;;;;;;5085077;28;20977;-70
2023/09/10 05:06:13;;;;;;;9.90;9.00;;;17.20;99.90;;;;;;5086267;28;20650;-70
2023/09/10 05:08:41;;;;;;;11.37;8.80;;;17.20;99.90;;;;;;5084475;28;21549;-70
2023/09/10 05:11:08;;;;;;;10.63;9.03;;;17.10;99.90;;;;;;5084236;28;20629;-70
2023/09/10 05:13:34;;;;;;;9.20;8.23;;;17.10;99.90;;;;;;5085158;28;20652;-71
2023/09/10 05:16:01;;;;;;;11.73;8.33;;;17.20;99.90;;;;;;5084928;28;20634;-71
2023/09/10 05:18:28;;;;;;;10.50;8.50;;;17.20;99.90;;;;;;5086284;28;20640;-70
2023/09/10 05:20:55;;;;;;;10.43;8.43;;;17.30;99.90;;;;;;5083703;28;20627;-71
2023/09/10 05:23:22;;;;;;;9.47;8.60;;;17.40;99.90;;;;;;5084843;28;20635;-70
2023/09/10 05:25:51;;;;;;;10.37;7.53;;;17.40;99.90;;;;;;5085620;28;21204;-70
2023/09/10 05:28:17;;;;;;;8.97;7.53;;;17.30;99.90;;;;;;5085407;28;20724;-71
2023/09/10 05:30:44;;;;;;;9.13;8.30;;;17.40;99.90;;;;;;5085423;28;20638;-70
2023/09/10 05:33:11;;;;;;;10.70;8.13;;;17.40;99.90;;;;;;5088326;28;20648;-70
2023/09/10 05:35:38;;;;;;;10.33;8.07;;;17.40;99.90;;;;;;5088823;28;20620;-71
2023/09/10 05:38:05;;;;;;;9.63;8.73;;;17.40;99.90;;;;;;5089193;28;21040;-70
2023/09/10 05:40:36;;;;;;;11.10;9.03;;;17.30;99.90;;;;;;5088565;28;20635;-70
2023/09/10 05:43:05;;;;;;;8.60;7.70;;;17.40;99.90;;;;;;5088075;28;20632;-71
2023/09/10 05:45:33;;;;;;;11.27;9.20;;;17.30;99.90;;;;;;5088258;28;21285;-70
2023/09/10 05:48:00;;;;;;;11.90;9.70;;;17.40;99.90;;;;;;5088815;28;20629;-71
2023/09/10 05:50:27;;;;;;;9.97;8.87;;;17.40;99.90;;;;;;5088190;28;20624;-70
2023/09/10 05:52:55;;;;;;;10.10;9.00;;;17.40;99.90;;;;;;5087756;28;20962;-70
2023/09/10 05:55:24;;;;;;;9.40;8.37;;;17.50;99.90;;;;;;5088674;28;21329;-71
2023/09/10 05:57:51;;;;;;;10.40;9.30;;;17.60;99.90;;;;;;5087737;28;21165;-70
2023/09/10 06:00:19;;;;;;;13.37;8.70;;;17.70;99.90;;;;;;5087205;28;20638;-70
2023/09/10 06:02:48;;;;;;;8.83;7.93;;;17.90;99.90;;;;;;5087940;28;21068;-70
2023/09/10 06:05:15;;;;;;;9.50;8.53;;;18.00;99.90;;;;;;5088006;28;20640;-71
2023/09/10 06:07:42;;;;;;;9.77;8.50;;;18.10;99.90;;;;;;5086962;28;21319;-70
2023/09/10 06:10:09;;;;;;;10.00;9.00;;;18.00;99.90;;;;;;5086552;28;20650;-70
2023/09/10 06:12:37;;;;;;;9.70;8.80;;;18.00;99.90;;;;;;5087789;28;20620;-70
2023/09/10 06:15:05;;;;;;;8.97;8.07;;;18.00;99.90;;;;;;5087292;28;20623;-71
2023/09/10 06:17:33;;;;;;;10.13;8.73;;;18.20;99.90;;;;;;5087989;28;20624;-70
2023/09/10 06:20:00;;;;;;;13.20;7.87;;;18.30;99.90;;;;;;5086838;28;20621;-71
2023/09/10 06:22:30;;;;;;;9.73;8.67;;;18.50;99.90;;;;;;5087191;28;21003;-70
2023/09/10 06:24:56;;;;;;;9.90;8.90;;;18.50;99.90;;;;;;5087266;28;21248;-70
2023/09/10 06:27:23;;;;;;;9.50;8.50;;;18.60;99.90;;;;;;5087334;28;21204;-70
2023/09/10 06:29:50;;;;;;;10.70;9.60;;;18.60;99.90;;;;;;5087658;28;21062;-70
2023/09/10 06:32:17;;;;;;;10.53;8.83;;;18.60;99.90;;;;;;5086584;28;20761;-70
2023/09/10 06:34:45;;;;;;;8.77;7.90;;;18.70;99.90;;;;;;5086922;28;20664;-70
2023/09/10 06:37:12;;;;;;;12.27;8.73;;;18.80;99.90;;;;;;5086750;28;21207;-71
2023/09/10 06:39:39;;;;;;;11.17;9.97;;;18.90;99.90;;;;;;5086238;28;20632;-70
2023/09/10 06:42:07;;;;;;;9.47;8.53;;;19.00;99.90;;;;;;5086677;28;21160;-71
2023/09/10 06:44:34;;;;;;;13.53;8.93;;;19.10;99.90;;;;;;5087515;28;20643;-71
2023/09/10 06:47:01;;;;;;;11.10;10.07;;;19.20;99.90;;;;;;5088243;28;20631;-70
2023/09/10 06:49:28;;;;;;;13.63;9.87;;;19.30;99.90;;;;;;5086628;28;20623;-70
2023/09/10 06:51:56;;;;;;;11.80;10.17;;;19.50;99.90;;;;;;5086689;27;20633;-70
2023/09/10 06:54:24;;;;;;;10.40;8.97;;;19.70;99.90;;;;;;5087154;28;20657;-71
2023/09/10 06:56:50;;;;;;;13.80;9.50;;;19.80;99.90;;;;;;5087354;28;21286;-71
2023/09/10 06:59:18;;;;;;;10.30;9.27;;;19.90;99.90;;;;;;5087674;28;20633;-70
2023/09/10 07:01:45;;;;;;;10.00;8.50;;;20.00;99.90;;;;;;5087192;28;20615;-71
2023/09/10 07:04:19;;;;;;;9.57;8.57;;;20.10;99.90;;;;;;5085209;28;20635;-72
2023/09/10 07:06:46;;;;;;;10.53;9.20;;;20.20;99.90;;;;;;5086709;28;20757;-72
2023/09/10 07:09:15;;;;;;;9.20;8.27;;;20.40;99.90;;;;;;5085476;28;20707;-71
2023/09/10 07:11:42;;;;;;;9.50;8.43;;;20.50;99.90;;;;;;5085980;28;20726;-72
2023/09/10 07:14:09;;;;;;;9.07;8.07;;;20.70;99.90;;;;;;5085851;28;20682;-72
2023/09/10 07:16:35;;;;;;;10.07;9.07;;;20.80;99.90;;;;;;5086190;28;20631;-71
2023/09/10 07:19:02;;;;;;;9.07;8.17;;;20.70;99.90;;;;;;5086440;28;20635;-71
2023/09/10 07:21:29;;;;;;;10.67;9.60;;;20.70;99.90;;;;;;5085625;28;20977;-71
2023/09/10 07:23:56;;;;;;;7.97;7.17;;;20.80;99.90;;;;;;5085658;28;20654;-71
2023/09/10 07:26:24;;;;;;;10.30;9.00;;;20.80;99.90;;;;;;5085066;28;21266;-71
2023/09/10 07:28:51;;;;;;;10.00;9.00;;;20.80;99.90;;;;;;5085315;28;21414;-72
2023/09/10 07:31:18;;;;;;;11.80;8.87;;;20.90;99.90;;;;;;5085707;28;20628;-72
2023/09/10 07:33:45;;;;;;;8.50;7.70;;;21.00;99.90;;;;;;5086232;28;21126;-70
2023/09/10 07:36:11;;;;;;;10.50;8.47;;;21.20;99.90;;;;;;5084553;28;20963;-72
2023/09/10 07:38:38;;;;;;;7.53;6.80;;;21.20;99.90;;;;;;5085164;28;21043;-70
2023/09/10 07:41:08;;;;;;;8.20;7.40;;;21.30;99.90;;;;;;5082962;28;21342;-72
2023/09/10 07:43:36;;;;;;;8.00;7.10;;;21.40;99.90;;;;;;5078072;28;20623;-70
2023/09/10 07:46:03;;;;;;;6.70;6.00;;;21.50;99.90;;;;;;5084839;28;20640;-72
2023/09/10 07:48:29;;;;;;;8.97;8.13;;;21.60;99.90;;;;;;5085992;28;20631;-71
2023/09/10 07:50:57;;;;;;;8.17;7.10;;;21.70;99.90;;;;;;5085009;28;20679;-72
2023/09/10 07:53:24;;;;;;;9.33;7.30;;;21.80;99.90;;;;;;5084567;28;21007;-71
2023/09/10 07:55:52;;;;;;;8.10;7.40;;;21.90;99.90;;;;;;5084673;28;21535;-71
2023/09/10 07:58:21;;;;;;;13.60;6.63;;;22.10;99.90;;;;;;5084312;28;20629;-70
2023/09/10 08:00:56;;;;;;;6.83;6.07;;;22.10;99.90;;;;;;5084427;28;20632;-71
2023/09/10 08:03:22;;;;;;;7.37;6.77;;;22.20;99.90;;;;;;5084514;28;21156;-71
2023/09/10 08:05:55;;;;;;;6.10;5.60;;;22.30;99.90;;;;;;5082358;28;20669;-72
2023/09/10 08:08:23;;;;;;;7.57;6.90;;;22.40;99.80;;;;;;5075842;28;21661;-70
2023/09/10 08:10:50;;;;;;;7.83;5.87;;;22.50;99.50;;;;;;5081420;28;20647;-70
2023/09/10 08:13:17;;;;;;;7.97;7.27;;;22.60;99.30;;;;;;5083373;28;20636;-71
2023/09/10 08:15:47;;;;;;;6.97;6.17;;;22.70;99.20;;;;;;5083992;28;21778;-71
2023/09/10 08:18:16;;;;;;;7.53;6.90;;;22.80;99.20;;;;;;5083358;28;21061;-71
2023/09/10 08:20:46;;;;;;;8.57;7.33;;;22.90;98.70;;;;;;5082862;28;20726;-69
2023/09/10 08:23:13;;;;;;;8.40;7.20;;;23.00;98.40;;;;;;5083400;28;20641;-70
2023/09/10 08:25:39;;;;;;;7.60;6.87;;;23.10;98.40;;;;;;5079259;28;20630;-70
2023/09/10 08:28:06;;;;;;;6.90;6.30;;;23.10;97.70;;;;;;5083597;28;20636;-70
2023/09/10 08:30:33;;;;;;;7.53;6.83;;;23.30;98.00;;;;;;5079748;28;20635;-70
2023/09/10 08:33:00;;;;;;;8.53;6.90;;;23.40;97.60;;;;;;5078483;28;20756;-70
2023/09/10 08:35:42;;;;;;;7.83;7.07;;;23.40;97.00;;;;;;5082894;28;20660;-69
2023/09/10 08:38:09;;;;;;;6.40;5.80;;;23.50;97.40;;;;;;5082982;28;20628;-71
2023/09/10 08:40:39;;;;;;;7.73;7.03;;;23.60;97.20;;;;;;5083194;28;20861;-70
2023/09/10 08:43:12;;;;;;;8.13;6.90;;;23.70;97.20;;;;;;5080724;28;20649;-71
2023/09/10 08:45:39;;;;;;;7.97;6.17;;;23.80;97.20;;;;;;5084081;28;20624;-71
2023/09/10 08:48:09;;;;;;;7.37;6.77;;;23.80;96.60;;;;;;5079472;28;20715;-71
2023/09/10 08:50:38;;;;;;;9.43;7.00;;;24.00;96.70;;;;;;5082937;28;20679;-72
2023/09/10 08:53:06;;;;;;;8.27;7.57;;;24.10;96.20;;;;;;5084060;28;20616;-72
2023/09/10 08:55:35;;;;;;;6.93;6.27;;;24.20;96.20;;;;;;5079341;28;20659;-74
2023/09/10 08:58:02;;;;;;;7.07;6.47;;;24.30;95.80;;;;;;5081118;28;20633;-72
2023/09/10 09:00:30;;;;;;;8.47;7.67;;;24.30;95.80;;;;;;5080897;28;20793;-72
2023/09/10 09:02:57;;;;;;;7.97;7.03;;;24.40;95.90;;;;;;5080948;28;20638;-72
2023/09/10 09:05:28;;;;;;;7.00;6.30;;;24.50;94.20;;;;;;5082557;28;21157;-72
2023/09/10 09:08:00;;;;;;;7.87;6.50;;;24.60;94.50;;;;;;5086850;28;20639;-72
2023/09/10 09:10:29;;;;;;;11.80;7.70;;;24.70;94.90;;;;;;5088405;28;20672;-71
2023/09/10 09:12:58;;;;;;;7.77;7.00;;;24.70;94.00;;;;;;5087711;28;20638;-71
2023/09/10 09:15:25;;;;;;;7.60;6.90;;;24.80;94.40;;;;;;5089140;28;20653;-71
2023/09/10 09:17:54;;;;;;;8.37;7.57;;;25.00;93.40;;;;;;5088819;28;20680;-71
2023/09/10 09:20:22;;;;;;;10.00;6.40;;;25.20;93.80;;;;;;5088874;28;20623;-71
2023/09/10 09:22:53;;;;;;;8.03;6.77;;;25.50;92.70;;;;;;5089252;28;20629;-72
2023/09/10 09:25:21;;;;;;;7.20;6.50;;;25.50;91.80;;;;;;5089540;28;21054;-72
2023/09/10 09:27:49;;;;;;;6.53;6.03;;;25.50;91.20;;;;;;5089471;28;20630;-72
2023/09/10 09:30:16;;;;;;;6.67;6.00;;;25.50;91.40;;;;;;5087986;28;20638;-72
2023/09/10 09:32:46;;;;;;;6.77;5.80;;;25.40;91.10;;;;;;5088354;28;20635;-72
2023/09/10 09:35:13;;;;;;;6.70;6.10;;;25.60;91.00;;;;;;5089282;28;20674;-72
2023/09/10 09:37:41;;;;;;;5.90;5.40;;;25.50;90.70;;;;;;5088569;28;20660;-72
2023/09/10 09:40:09;;;;;;;6.73;6.13;;;25.50;90.70;;;;;;5088286;28;21088;-72
2023/09/10 09:42:38;;;;;;;9.57;5.63;;;25.60;91.00;;;;;;5087123;28;20636;-72
2023/09/10 09:45:06;;;;;;;7.40;6.67;;;25.90;89.20;;;;;;5088394;28;20705;-72
2023/09/10 09:47:36;;;;;;;7.60;6.80;;;26.00;89.60;;;;;;5087940;28;20625;-72
2023/09/10 09:50:06;;;;;;;6.60;6.00;;;26.10;87.70;;;;;;5087760;28;20978;-71
2023/09/10 09:52:34;;;;;;;6.70;6.00;;;26.10;88.70;;;;;;5088432;28;20658;-72
2023/09/10 09:55:05;;;;;;;9.40;6.67;;;26.20;89.10;;;;;;5088318;28;21121;-72
2023/09/10 09:57:47;;;;;;;7.60;6.90;;;26.10;86.80;;;;;;5088347;28;20632;-71
2023/09/10 10:00:15;;;;;;;7.57;6.87;;;26.20;89.20;;;;;;5087318;28;20620;-72
2023/09/10 10:02:42;;;;;;;6.33;5.63;;;26.40;87.20;;;;;;5086459;28;20637;-73
2023/09/10 10:05:09;;;;;;;7.50;6.70;;;26.50;88.30;;;;;;5088312;28;20728;-72
2023/09/10 10:07:36;;;;;;;6.40;5.80;;;26.60;86.90;;;;;;5088167;28;20719;-71
2023/09/10 10:10:08;;;;;;;7.80;7.00;;;26.70;87.50;;;;;;5086798;28;20647;-71
2023/09/10 10:12:37;;;;;;;6.57;6.00;;;26.80;87.40;;;;;;5088419;27;20642;-72
2023/09/10 10:15:08;;;;;;;7.23;6.53;;;26.80;87.40;;;;;;5087977;28;21800;-72
2023/09/10 10:17:36;;;;;;;6.63;5.87;;;26.70;87.40;;;;;;5087246;28;20628;-72
2023/09/10 10:20:05;;;;;;;7.67;5.93;;;26.70;84.60;;;;;;5087251;28;20623;-72
2023/09/10 10:22:34;;;;;;;7.80;6.27;;;26.60;84.70;;;;;;5088440;28;20963;-72
2023/09/10 10:25:03;;;;;;;6.50;5.90;;;26.50;85.50;;;;;;5087809;28;21218;-72
2023/09/10 10:27:33;;;;;;;6.17;5.67;;;26.60;86.40;;;;;;5087352;28;20632;-73
2023/09/10 10:29:59;;;;;;;7.27;6.57;;;26.70;86.90;;;;;;5086320;28;20627;-73
2023/09/10 10:32:33;;;;;;;8.67;6.60;;;26.80;87.00;;;;;;5086972;27;21487;-72
2023/09/10 10:35:04;;;;;;;7.63;6.50;;;27.00;84.60;;;;;;5087407;28;20658;-72
2023/09/10 10:37:40;;;;;;;7.47;6.77;;;27.00;85.50;;;;;;5086740;27;20648;-72
2023/09/10 10:40:12;;;;;;;8.07;7.37;;;26.90;85.20;;;;;;5086827;28;20631;-72
2023/09/10 10:42:47;;;;;;;11.37;7.73;;;26.90;82.40;;;;;;5087704;28;20627;-72
2023/09/10 10:45:17;;;;;;;7.67;6.53;;;27.00;83.90;;;;;;5087745;28;20966;-72
2023/09/10 10:47:47;;;;;;;7.50;6.90;;;27.10;82.60;;;;;;5087899;28;20975;-72
2023/09/10 10:50:20;;;;;;;6.10;5.60;;;27.20;85.30;;;;;;5087209;28;20616;-72
2023/09/10 10:52:55;;;;;;;7.17;6.57;;;27.30;85.90;;;;;;5086910;28;20639;-72
2023/09/10 10:55:22;;;;;;;6.97;6.37;;;27.60;82.60;;;;;;5088366;28;20658;-72
2023/09/10 10:57:49;;;;;;;7.70;6.90;;;27.60;83.50;;;;;;5087034;28;20620;-72
2023/09/10 11:00:17;;;;;;;7.07;6.37;;;27.70;81.30;;;;;;5086628;28;20640;-72
2023/09/10 11:02:46;;;;;;;8.83;7.23;;;27.60;82.60;;;;;;5087621;28;20631;-72
2023/09/10 11:05:12;;;;;;;8.90;7.27;;;27.70;82.00;;;;;;5087301;28;20991;-72
2023/09/10 11:07:39;;;;;;;6.77;6.27;;;27.70;84.00;;;;;;5087706;28;20620;-72
2023/09/10 11:10:41;;;;;;;6.60;6.10;;;27.80;83.50;;;;;;5086299;28;20644;-72
2023/09/10 11:13:10;;;;;;;7.17;6.57;;;27.70;79.20;;;;;;5086188;28;20627;-72
2023/09/10 11:15:37;;;;;;;7.33;6.13;;;27.50;81.00;;;;;;5087618;28;21462;-72
2023/09/10 11:18:42;;;;;;;7.43;6.73;;;27.60;79.90;;;;;;5086772;28;20625;-72
2023/09/10 11:21:10;;;;;;;10.50;7.10;;;27.70;82.50;;;;;;5087057;28;20988;-72
2023/09/10 11:23:39;;;;;;;7.40;6.80;;;27.80;81.70;;;;;;5084972;28;20625;-72
2023/09/10 11:26:31;;;;;;;6.87;6.27;;;27.90;80.50;;;;;;5086513;28;21292;-72
2023/09/10 11:28:59;;;;;;;7.00;6.40;;;27.90;81.10;;;;;;5086089;28;21833;-72
2023/09/10 11:31:37;;;;;;;6.63;6.03;;;28.10;80.30;;;;;;5086943;28;20642;-72
2023/09/10 11:34:38;;;;;;;6.97;6.37;;;27.90;78.60;;;;;;5085488;28;20624;-72
2023/09/10 11:37:07;;;;;;;8.63;7.70;;;28.20;79.10;;;;;;5086584;28;20731;-72
2023/09/10 11:39:35;;;;;;;8.17;7.40;;;28.40;79.10;;;;;;5085963;28;20638;-72
2023/09/10 11:42:03;;;;;;;7.40;6.60;;;28.30;78.00;;;;;;5086463;28;20629;-72
2023/09/10 11:44:30;;;;;;;7.13;6.53;;;28.00;77.20;;;;;;5086830;28;20630;-72
2023/09/10 11:46:57;;;;;;;9.27;8.30;;;28.00;78.70;;;;;;5086147;28;20627;-72
2023/09/10 11:49:25;;;;;;;7.87;7.07;;;27.90;78.20;;;;;;5086019;28;20676;-72
2023/09/10 11:51:56;;;;;;;9.10;8.20;;;27.70;78.50;;;;;;5086070;28;20628;-72
2023/09/10 11:54:22;;;;;;;7.43;6.73;;;28.00;77.00;;;;;;5086665;28;20631;-72
2023/09/10 11:56:51;;;;;;;8.93;6.23;;;28.20;77.70;;;;;;5087125;28;20948;-72
2023/09/10 11:59:19;;;;;;;7.27;6.57;;;28.20;78.60;;;;;;5085461;28;20624;-72
2023/09/10 12:01:46;;;;;;;7.40;6.70;;;28.30;77.40;;;;;;5087077;28;20970;-72
2023/09/10 12:04:16;;;;;;;13.20;7.13;;;28.10;79.20;;;;;;5085851;28;20631;-72
2023/09/10 12:06:43;;;;;;;7.60;6.97;;;28.00;80.60;;;;;;5086014;28;21434;-72
2023/09/10 12:09:13;;;;;;;10.33;7.33;;;28.00;79.60;;;;;;5085408;28;21241;-72
2023/09/10 12:11:42;;;;;;;6.90;6.30;;;27.80;78.80;;;;;;5086615;28;20643;-72
2023/09/10 12:14:09;;;;;;;7.90;7.00;;;28.10;77.90;;;;;;5086179;28;20672;-72
2023/09/10 12:16:36;;;;;;;7.37;6.63;;;28.30;76.80;;;;;;5087216;28;20667;-72
2023/09/10 12:19:03;;;;;;;7.07;6.47;;;28.30;75.20;;;;;;5084611;28;20995;-72
2023/09/10 12:21:30;;;;;;;6.73;6.20;;;28.40;74.20;;;;;;5085277;28;20623;-72
2023/09/10 12:23:57;;;;;;;8.33;7.47;;;28.20;78.50;;;;;;5085906;28;20730;-72
2023/09/10 12:26:25;;;;;;;7.43;6.73;;;28.20;79.00;;;;;;5085600;28;20717;-72
2023/09/10 12:28:52;;;;;;;7.57;6.90;;;28.30;78.10;;;;;;5085859;28;21222;-72
2023/09/10 12:31:20;;;;;;;8.40;7.63;;;28.20;77.10;;;;;;5083792;28;20634;-72
2023/09/10 12:33:47;;;;;;;7.37;6.70;;;28.10;79.20;;;;;;5084168;28;21120;-72
2023/09/10 12:36:15;;;;;;;6.87;6.27;;;28.20;77.90;;;;;;5085761;28;20659;-72
2023/09/10 12:38:42;;;;;;;9.50;8.70;;;28.20;77.90;;;;;;5085541;28;20638;-72
2023/09/10 12:41:08;;;;;;;7.30;6.60;;;28.30;77.90;;;;;;5084419;28;20628;-72
2023/09/10 12:43:37;;;;;;;7.53;6.90;;;28.50;77.30;;;;;;5085477;28;20636;-72
2023/09/10 12:46:04;;;;;;;8.37;7.67;;;28.40;76.70;;;;;;5084477;28;20620;-72
2023/09/10 12:48:30;;;;;;;8.20;7.20;;;28.20;76.90;;;;;;5084507;28;21826;-72
2023/09/10 12:50:57;;;;;;;8.20;6.63;;;27.90;75.80;;;;;;5084428;28;20672;-72